sensor_id;sensor_type;location;lat;lon;timestamp;P1;durP1;ratioP1;P2;durP2;ratioP2
7503;SDS011;3793;48.136;11.536;2023-03-17T00:01:57;6.37;;;4.73;;
7503;SDS011;3793;48.136;11.536;2023-03-17T00:04:25;11.13;;;3.90;;
7503;SDS011;3793;48.136;11.536;2023-03-17T00:06:52;5.63;;;4.73;;
7503;SDS011;3793;48.136;11.536;2023-03-17T00:09:19;5.40;;;4.23;;
7503;SDS011;3793;48.136;11.536;2023-03-17T00:11:46;9.53;;;4.53;;
7503;SDS011;3793;48.136;11.536;2023-03-17T00:14:13;5.47;;;4.00;;
7503;SDS011;3793;48.136;11.536;2023-03-17T00:16:41;7.40;;;4.70;;
7503;SDS011;3793;48.136;11.536;2023-03-17T00:19:08;11.33;;;5.07;;
7503;SDS011;3793;48.136;11.536;2023-03-17T00:21:42;5.47;;;4.30;;
7503;SDS011;3793;48.136;11.536;2023-03-17T00:24:09;7.53;;;5.00;;
7503;SDS011;3793;48.136;11.536;2023-03-17T00:26:36;6.50;;;4.67;;
7503;SDS011;3793;48.136;11.536;2023-03-17T00:29:03;6.37;;;4.47;;
7503;SDS011;3793;48.136;11.536;2023-03-17T00:31:31;6.67;;;4.60;;
7503;SDS011;3793;48.136;11.536;2023-03-17T00:33:58;7.73;;;4.80;;
7503;SDS011;3793;48.136;11.536;2023-03-17T00:36:26;6.33;;;5.00;;
7503;SDS011;3793;48.136;11.536;2023-03-17T00:38:55;6.20;;;4.60;;
7503;SDS011;3793;48.136;11.536;2023-03-17T00:41:22;7.97;;;4.90;;
7503;SDS011;3793;48.136;11.536;2023-03-17T00:43:49;8.07;;;4.90;;
7503;SDS011;3793;48.136;11.536;2023-03-17T00:46:17;7.33;;;4.60;;
7503;SDS011;3793;48.136;11.536;2023-03-17T00:48:47;7.90;;;4.70;;
7503;SDS011;3793;48.136;11.536;2023-03-17T00:51:14;5.47;;;4.60;;
7503;SDS011;3793;48.136;11.536;2023-03-17T00:53:41;6.13;;;4.67;;
7503;SDS011;3793;48.136;11.536;2023-03-17T00:56:13;6.00;;;4.50;;
7503;SDS011;3793;48.136;11.536;2023-03-17T00:58:41;7.07;;;4.43;;
7503;SDS011;3793;48.136;11.536;2023-03-17T01:01:08;6.00;;;4.63;;
7503;SDS011;3793;48.136;11.536;2023-03-17T01:03:34;8.07;;;4.97;;
7503;SDS011;3793;48.136;11.536;2023-03-17T01:06:02;6.87;;;4.43;;
7503;SDS011;3793;48.136;11.536;2023-03-17T01:08:29;5.90;;;4.47;;
7503;SDS011;3793;48.136;11.536;2023-03-17T01:10:58;6.03;;;4.73;;
7503;SDS011;3793;48.136;11.536;2023-03-17T01:13:27;6.23;;;4.43;;
7503;SDS011;3793;48.136;11.536;2023-03-17T01:15:54;6.57;;;4.93;;
7503;SDS011;3793;48.136;11.536;2023-03-17T01:18:22;5.57;;;4.57;;
7503;SDS011;3793;48.136;11.536;2023-03-17T01:20:48;5.93;;;4.40;;
7503;SDS011;3793;48.136;11.536;2023-03-17T01:23:16;7.60;;;4.63;;
7503;SDS011;3793;48.136;11.536;2023-03-17T01:25:43;6.13;;;4.57;;
7503;SDS011;3793;48.136;11.536;2023-03-17T01:28:10;6.73;;;4.30;;
7503;SDS011;3793;48.136;11.536;2023-03-17T01:30:40;5.83;;;4.87;;
7503;SDS011;3793;48.136;11.536;2023-03-17T01:33:08;5.87;;;4.73;;
7503;SDS011;3793;48.136;11.536;2023-03-17T01:35:35;7.97;;;4.80;;
7503;SDS011;3793;48.136;11.536;2023-03-17T01:38:02;6.27;;;4.60;;
7503;SDS011;3793;48.136;11.536;2023-03-17T01:40:31;6.37;;;4.60;;
7503;SDS011;3793;48.136;11.536;2023-03-17T01:42:58;6.50;;;4.40;;
7503;SDS011;3793;48.136;11.536;2023-03-17T01:48:12;5.80;;;4.73;;
7503;SDS011;3793;48.136;11.536;2023-03-17T01:50:39;5.80;;;4.53;;
7503;SDS011;3793;48.136;11.536;2023-03-17T01:53:06;8.83;;;5.33;;
7503;SDS011;3793;48.136;11.536;2023-03-17T01:55:33;5.10;;;3.87;;
7503;SDS011;3793;48.136;11.536;2023-03-17T01:58:00;5.50;;;4.30;;
7503;SDS011;3793;48.136;11.536;2023-03-17T02:00:27;8.63;;;4.90;;
7503;SDS011;3793;48.136;11.536;2023-03-17T02:02:55;5.83;;;5.13;;
7503;SDS011;3793;48.136;11.536;2023-03-17T02:05:23;6.43;;;4.80;;
7503;SDS011;3793;48.136;11.536;2023-03-17T02:07:51;4.87;;;4.17;;
7503;SDS011;3793;48.136;11.536;2023-03-17T02:10:18;7.30;;;4.93;;
7503;SDS011;3793;48.136;11.536;2023-03-17T02:12:46;5.83;;;4.77;;
7503;SDS011;3793;48.136;11.536;2023-03-17T02:15:13;5.60;;;4.60;;
7503;SDS011;3793;48.136;11.536;2023-03-17T02:17:40;6.70;;;4.60;;
7503;SDS011;3793;48.136;11.536;2023-03-17T02:22:50;7.13;;;4.73;;
7503;SDS011;3793;48.136;11.536;2023-03-17T02:25:17;5.13;;;4.50;;
7503;SDS011;3793;48.136;11.536;2023-03-17T02:27:47;6.53;;;4.83;;
7503;SDS011;3793;48.136;11.536;2023-03-17T02:30:16;6.73;;;4.77;;
7503;SDS011;3793;48.136;11.536;2023-03-17T02:32:43;6.33;;;4.47;;
7503;SDS011;3793;48.136;11.536;2023-03-17T02:35:09;7.47;;;4.70;;
7503;SDS011;3793;48.136;11.536;2023-03-17T02:37:37;5.47;;;4.30;;
7503;SDS011;3793;48.136;11.536;2023-03-17T02:40:06;9.50;;;4.30;;
7503;SDS011;3793;48.136;11.536;2023-03-17T02:42:35;6.17;;;4.70;;
7503;SDS011;3793;48.136;11.536;2023-03-17T02:45:03;7.87;;;4.80;;
7503;SDS011;3793;48.136;11.536;2023-03-17T02:47:30;7.50;;;4.40;;
7503;SDS011;3793;48.136;11.536;2023-03-17T02:49:57;7.23;;;4.70;;
7503;SDS011;3793;48.136;11.536;2023-03-17T02:52:24;6.97;;;4.97;;
7503;SDS011;3793;48.136;11.536;2023-03-17T02:54:51;6.63;;;4.97;;
7503;SDS011;3793;48.136;11.536;2023-03-17T02:57:19;6.43;;;4.37;;
7503;SDS011;3793;48.136;11.536;2023-03-17T02:59:46;5.57;;;4.37;;
7503;SDS011;3793;48.136;11.536;2023-03-17T03:02:12;4.93;;;4.43;;
7503;SDS011;3793;48.136;11.536;2023-03-17T03:04:39;5.43;;;4.33;;
7503;SDS011;3793;48.136;11.536;2023-03-17T03:07:06;6.50;;;4.67;;
7503;SDS011;3793;48.136;11.536;2023-03-17T03:09:32;6.90;;;4.90;;
7503;SDS011;3793;48.136;11.536;2023-03-17T03:11:59;10.07;;;4.90;;
7503;SDS011;3793;48.136;11.536;2023-03-17T03:14:27;7.13;;;4.60;;
7503;SDS011;3793;48.136;11.536;2023-03-17T03:16:54;6.97;;;4.40;;
7503;SDS011;3793;48.136;11.536;2023-03-17T03:19:21;6.23;;;4.67;;
7503;SDS011;3793;48.136;11.536;2023-03-17T03:21:48;6.33;;;4.73;;
7503;SDS011;3793;48.136;11.536;2023-03-17T03:24:14;5.93;;;4.87;;
7503;SDS011;3793;48.136;11.536;2023-03-17T03:26:41;5.90;;;4.60;;
7503;SDS011;3793;48.136;11.536;2023-03-17T03:29:08;8.70;;;5.63;;
7503;SDS011;3793;48.136;11.536;2023-03-17T03:31:36;7.03;;;5.07;;
7503;SDS011;3793;48.136;11.536;2023-03-17T03:34:02;5.37;;;4.50;;
7503;SDS011;3793;48.136;11.536;2023-03-17T03:36:29;5.47;;;4.27;;
7503;SDS011;3793;48.136;11.536;2023-03-17T03:38:56;7.07;;;4.97;;
7503;SDS011;3793;48.136;11.536;2023-03-17T03:41:24;7.00;;;4.73;;
7503;SDS011;3793;48.136;11.536;2023-03-17T03:43:51;4.83;;;4.30;;
7503;SDS011;3793;48.136;11.536;2023-03-17T03:46:18;7.37;;;5.00;;
7503;SDS011;3793;48.136;11.536;2023-03-17T03:48:46;4.93;;;4.37;;
7503;SDS011;3793;48.136;11.536;2023-03-17T03:51:13;7.73;;;4.60;;
7503;SDS011;3793;48.136;11.536;2023-03-17T03:53:39;6.23;;;4.57;;
7503;SDS011;3793;48.136;11.536;2023-03-17T03:56:06;6.07;;;4.53;;
7503;SDS011;3793;48.136;11.536;2023-03-17T03:58:33;5.37;;;4.30;;
7503;SDS011;3793;48.136;11.536;2023-03-17T04:01:02;5.67;;;4.47;;
7503;SDS011;3793;48.136;11.536;2023-03-17T04:03:29;7.50;;;4.43;;
7503;SDS011;3793;48.136;11.536;2023-03-17T04:05:57;5.47;;;3.90;;
7503;SDS011;3793;48.136;11.536;2023-03-17T04:08:23;5.60;;;4.80;;
7503;SDS011;3793;48.136;11.536;2023-03-17T04:10:51;6.37;;;4.63;;
7503;SDS011;3793;48.136;11.536;2023-03-17T04:13:17;6.33;;;4.87;;
7503;SDS011;3793;48.136;11.536;2023-03-17T04:15:44;7.90;;;4.80;;
7503;SDS011;3793;48.136;11.536;2023-03-17T04:18:11;5.60;;;4.73;;
7503;SDS011;3793;48.136;11.536;2023-03-17T04:20:37;6.47;;;4.90;;
7503;SDS011;3793;48.136;11.536;2023-03-17T04:23:06;5.70;;;4.40;;
7503;SDS011;3793;48.136;11.536;2023-03-17T04:25:32;6.30;;;4.87;;
7503;SDS011;3793;48.136;11.536;2023-03-17T04:27:59;5.47;;;4.50;;
7503;SDS011;3793;48.136;11.536;2023-03-17T04:30:26;7.17;;;4.70;;
7503;SDS011;3793;48.136;11.536;2023-03-17T04:32:53;5.47;;;4.40;;
7503;SDS011;3793;48.136;11.536;2023-03-17T04:35:20;5.70;;;4.47;;
7503;SDS011;3793;48.136;11.536;2023-03-17T04:37:47;6.00;;;4.60;;
7503;SDS011;3793;48.136;11.536;2023-03-17T04:42:44;6.80;;;4.43;;
7503;SDS011;3793;48.136;11.536;2023-03-17T04:45:11;6.97;;;4.33;;
7503;SDS011;3793;48.136;11.536;2023-03-17T04:47:38;7.43;;;4.53;;
7503;SDS011;3793;48.136;11.536;2023-03-17T04:50:05;5.80;;;4.27;;
7503;SDS011;3793;48.136;11.536;2023-03-17T04:52:33;5.03;;;4.53;;
7503;SDS011;3793;48.136;11.536;2023-03-17T04:54:59;4.80;;;4.13;;
7503;SDS011;3793;48.136;11.536;2023-03-17T04:57:26;7.10;;;4.30;;
7503;SDS011;3793;48.136;11.536;2023-03-17T04:59:54;7.53;;;4.73;;
7503;SDS011;3793;48.136;11.536;2023-03-17T05:02:21;5.33;;;4.30;;
7503;SDS011;3793;48.136;11.536;2023-03-17T05:04:48;5.67;;;3.70;;
7503;SDS011;3793;48.136;11.536;2023-03-17T05:07:14;5.77;;;3.73;;
7503;SDS011;3793;48.136;11.536;2023-03-17T05:09:41;8.67;;;4.30;;
7503;SDS011;3793;48.136;11.536;2023-03-17T05:12:08;5.97;;;4.17;;
7503;SDS011;3793;48.136;11.536;2023-03-17T05:14:35;7.67;;;4.37;;
7503;SDS011;3793;48.136;11.536;2023-03-17T05:17:03;6.93;;;4.60;;
7503;SDS011;3793;48.136;11.536;2023-03-17T05:19:30;6.30;;;4.13;;
7503;SDS011;3793;48.136;11.536;2023-03-17T05:21:56;4.43;;;3.83;;
7503;SDS011;3793;48.136;11.536;2023-03-17T05:24:23;4.13;;;3.37;;
7503;SDS011;3793;48.136;11.536;2023-03-17T05:26:50;4.87;;;4.10;;
7503;SDS011;3793;48.136;11.536;2023-03-17T05:29:16;6.07;;;3.97;;
7503;SDS011;3793;48.136;11.536;2023-03-17T05:31:43;5.23;;;4.17;;
7503;SDS011;3793;48.136;11.536;2023-03-17T05:34:11;7.07;;;4.83;;
7503;SDS011;3793;48.136;11.536;2023-03-17T05:36:38;4.67;;;3.97;;
7503;SDS011;3793;48.136;11.536;2023-03-17T05:39:04;5.40;;;4.20;;
7503;SDS011;3793;48.136;11.536;2023-03-17T05:41:31;6.80;;;3.90;;
7503;SDS011;3793;48.136;11.536;2023-03-17T05:43:58;9.43;;;4.43;;
7503;SDS011;3793;48.136;11.536;2023-03-17T05:46:25;4.40;;;3.83;;
7503;SDS011;3793;48.136;11.536;2023-03-17T05:48:51;7.30;;;4.13;;
7503;SDS011;3793;48.136;11.536;2023-03-17T05:51:19;6.83;;;4.23;;
7503;SDS011;3793;48.136;11.536;2023-03-17T05:53:46;5.77;;;4.00;;
7503;SDS011;3793;48.136;11.536;2023-03-17T05:56:13;5.97;;;4.03;;
7503;SDS011;3793;48.136;11.536;2023-03-17T05:58:40;5.93;;;3.87;;
7503;SDS011;3793;48.136;11.536;2023-03-17T06:01:06;6.23;;;4.40;;
7503;SDS011;3793;48.136;11.536;2023-03-17T06:03:33;5.03;;;3.87;;
7503;SDS011;3793;48.136;11.536;2023-03-17T06:06:02;9.63;;;4.30;;
7503;SDS011;3793;48.136;11.536;2023-03-17T06:08:30;6.87;;;4.20;;
7503;SDS011;3793;48.136;11.536;2023-03-17T06:10:57;5.67;;;4.17;;
7503;SDS011;3793;48.136;11.536;2023-03-17T06:13:23;5.10;;;4.10;;
7503;SDS011;3793;48.136;11.536;2023-03-17T06:15:50;6.93;;;4.37;;
7503;SDS011;3793;48.136;11.536;2023-03-17T06:18:17;6.00;;;3.80;;
7503;SDS011;3793;48.136;11.536;2023-03-17T06:20:44;5.10;;;3.90;;
7503;SDS011;3793;48.136;11.536;2023-03-17T06:23:11;5.77;;;3.93;;
7503;SDS011;3793;48.136;11.536;2023-03-17T06:25:39;8.67;;;4.40;;
7503;SDS011;3793;48.136;11.536;2023-03-17T06:28:06;4.87;;;3.67;;
7503;SDS011;3793;48.136;11.536;2023-03-17T06:30:33;7.63;;;4.00;;
7503;SDS011;3793;48.136;11.536;2023-03-17T06:33:00;4.93;;;3.70;;
7503;SDS011;3793;48.136;11.536;2023-03-17T06:35:27;6.37;;;4.07;;
7503;SDS011;3793;48.136;11.536;2023-03-17T06:37:53;6.67;;;3.87;;
7503;SDS011;3793;48.136;11.536;2023-03-17T06:40:20;5.60;;;3.50;;
7503;SDS011;3793;48.136;11.536;2023-03-17T06:42:48;5.40;;;3.70;;
7503;SDS011;3793;48.136;11.536;2023-03-17T06:45:15;6.80;;;3.63;;
7503;SDS011;3793;48.136;11.536;2023-03-17T06:47:41;6.57;;;4.43;;
7503;SDS011;3793;48.136;11.536;2023-03-17T06:50:09;4.40;;;3.73;;
7503;SDS011;3793;48.136;11.536;2023-03-17T06:52:36;6.70;;;3.87;;
7503;SDS011;3793;48.136;11.536;2023-03-17T06:55:03;6.60;;;4.10;;
7503;SDS011;3793;48.136;11.536;2023-03-17T06:57:30;6.70;;;4.00;;
7503;SDS011;3793;48.136;11.536;2023-03-17T06:59:58;5.03;;;3.80;;
7503;SDS011;3793;48.136;11.536;2023-03-17T07:02:25;7.97;;;4.17;;
7503;SDS011;3793;48.136;11.536;2023-03-17T07:04:52;6.90;;;4.87;;
7503;SDS011;3793;48.136;11.536;2023-03-17T07:07:18;7.93;;;4.10;;
7503;SDS011;3793;48.136;11.536;2023-03-17T07:09:45;6.43;;;4.83;;
7503;SDS011;3793;48.136;11.536;2023-03-17T07:12:12;7.03;;;3.50;;
7503;SDS011;3793;48.136;11.536;2023-03-17T07:14:39;5.90;;;3.80;;
7503;SDS011;3793;48.136;11.536;2023-03-17T07:19:49;8.73;;;3.83;;
7503;SDS011;3793;48.136;11.536;2023-03-17T07:22:16;4.97;;;3.73;;
7503;SDS011;3793;48.136;11.536;2023-03-17T07:24:43;8.77;;;4.20;;
7503;SDS011;3793;48.136;11.536;2023-03-17T07:27:13;8.10;;;4.37;;
7503;SDS011;3793;48.136;11.536;2023-03-17T07:29:54;5.90;;;3.97;;
7503;SDS011;3793;48.136;11.536;2023-03-17T07:32:26;5.13;;;3.57;;
7503;SDS011;3793;48.136;11.536;2023-03-17T07:34:54;5.90;;;3.77;;
7503;SDS011;3793;48.136;11.536;2023-03-17T07:37:21;4.37;;;3.83;;
7503;SDS011;3793;48.136;11.536;2023-03-17T07:39:48;4.97;;;3.80;;
7503;SDS011;3793;48.136;11.536;2023-03-17T07:42:15;9.97;;;3.97;;
7503;SDS011;3793;48.136;11.536;2023-03-17T07:44:42;5.73;;;3.47;;
7503;SDS011;3793;48.136;11.536;2023-03-17T07:47:10;7.13;;;4.60;;
7503;SDS011;3793;48.136;11.536;2023-03-17T07:49:37;11.10;;;4.33;;
7503;SDS011;3793;48.136;11.536;2023-03-17T07:52:05;7.90;;;4.30;;
7503;SDS011;3793;48.136;11.536;2023-03-17T07:54:32;5.47;;;4.07;;
7503;SDS011;3793;48.136;11.536;2023-03-17T07:56:59;4.67;;;3.53;;
7503;SDS011;3793;48.136;11.536;2023-03-17T07:59:26;5.43;;;3.90;;
7503;SDS011;3793;48.136;11.536;2023-03-17T08:01:53;8.70;;;3.97;;
7503;SDS011;3793;48.136;11.536;2023-03-17T08:04:22;6.17;;;3.53;;
7503;SDS011;3793;48.136;11.536;2023-03-17T08:06:48;3.83;;;3.23;;
7503;SDS011;3793;48.136;11.536;2023-03-17T08:09:16;6.37;;;4.60;;
7503;SDS011;3793;48.136;11.536;2023-03-17T08:11:43;6.97;;;3.70;;
7503;SDS011;3793;48.136;11.536;2023-03-17T08:14:09;5.80;;;3.83;;
7503;SDS011;3793;48.136;11.536;2023-03-17T08:16:37;6.50;;;3.53;;
7503;SDS011;3793;48.136;11.536;2023-03-17T08:19:03;12.47;;;3.43;;
7503;SDS011;3793;48.136;11.536;2023-03-17T08:21:30;3.87;;;3.20;;
7503;SDS011;3793;48.136;11.536;2023-03-17T08:23:57;5.47;;;3.20;;
7503;SDS011;3793;48.136;11.536;2023-03-17T08:26:28;6.37;;;3.00;;
7503;SDS011;3793;48.136;11.536;2023-03-17T08:28:56;5.27;;;2.80;;
7503;SDS011;3793;48.136;11.536;2023-03-17T08:31:23;7.03;;;3.20;;
7503;SDS011;3793;48.136;11.536;2023-03-17T08:33:50;6.47;;;3.00;;
7503;SDS011;3793;48.136;11.536;2023-03-17T08:36:17;4.20;;;2.90;;
7503;SDS011;3793;48.136;11.536;2023-03-17T08:38:45;4.68;;;3.38;;
7503;SDS011;3793;48.136;11.536;2023-03-17T08:41:13;5.38;;;3.15;;
7503;SDS011;3793;48.136;11.536;2023-03-17T08:43:42;5.95;;;2.75;;
7503;SDS011;3793;48.136;11.536;2023-03-17T08:46:12;5.30;;;2.75;;
7503;SDS011;3793;48.136;11.536;2023-03-17T08:48:38;8.25;;;3.30;;
7503;SDS011;3793;48.136;11.536;2023-03-17T08:51:05;7.15;;;3.40;;
7503;SDS011;3793;48.136;11.536;2023-03-17T08:53:32;6.35;;;3.20;;
7503;SDS011;3793;48.136;11.536;2023-03-17T08:55:59;6.05;;;2.63;;
7503;SDS011;3793;48.136;11.536;2023-03-17T08:58:26;7.22;;;2.90;;
7503;SDS011;3793;48.136;11.536;2023-03-17T09:00:56;7.88;;;3.00;;
7503;SDS011;3793;48.136;11.536;2023-03-17T09:03:24;5.90;;;3.03;;
7503;SDS011;3793;48.136;11.536;2023-03-17T09:05:51;7.55;;;3.53;;
7503;SDS011;3793;48.136;11.536;2023-03-17T09:08:19;6.93;;;3.10;;
7503;SDS011;3793;48.136;11.536;2023-03-17T09:10:46;12.50;;;3.42;;
7503;SDS011;3793;48.136;11.536;2023-03-17T09:13:13;9.07;;;3.60;;
7503;SDS011;3793;48.136;11.536;2023-03-17T09:15:40;7.95;;;3.20;;
7503;SDS011;3793;48.136;11.536;2023-03-17T09:18:08;6.72;;;3.55;;
7503;SDS011;3793;48.136;11.536;2023-03-17T09:20:35;5.57;;;3.40;;
7503;SDS011;3793;48.136;11.536;2023-03-17T09:23:04;5.45;;;3.75;;
7503;SDS011;3793;48.136;11.536;2023-03-17T09:25:34;7.35;;;3.40;;
7503;SDS011;3793;48.136;11.536;2023-03-17T09:28:01;9.18;;;4.00;;
7503;SDS011;3793;48.136;11.536;2023-03-17T09:30:29;7.18;;;3.20;;
7503;SDS011;3793;48.136;11.536;2023-03-17T09:32:58;4.55;;;3.17;;
7503;SDS011;3793;48.136;11.536;2023-03-17T09:35:28;11.02;;;3.72;;
7503;SDS011;3793;48.136;11.536;2023-03-17T09:37:55;6.45;;;3.83;;
7503;SDS011;3793;48.136;11.536;2023-03-17T09:40:27;4.90;;;3.05;;
7503;SDS011;3793;48.136;11.536;2023-03-17T09:42:58;6.93;;;2.75;;
7503;SDS011;3793;48.136;11.536;2023-03-17T09:45:29;5.35;;;2.83;;
7503;SDS011;3793;48.136;11.536;2023-03-17T09:47:59;8.23;;;2.83;;
7503;SDS011;3793;48.136;11.536;2023-03-17T09:50:33;6.32;;;2.78;;
7503;SDS011;3793;48.136;11.536;2023-03-17T09:53:03;8.30;;;2.78;;
7503;SDS011;3793;48.136;11.536;2023-03-17T09:55:31;4.93;;;2.95;;
7503;SDS011;3793;48.136;11.536;2023-03-17T09:57:59;9.35;;;2.95;;
7503;SDS011;3793;48.136;11.536;2023-03-17T10:00:27;6.50;;;2.70;;
7503;SDS011;3793;48.136;11.536;2023-03-17T10:02:58;3.67;;;2.72;;
7503;SDS011;3793;48.136;11.536;2023-03-17T10:05:28;7.07;;;2.80;;
7503;SDS011;3793;48.136;11.536;2023-03-17T10:08:00;8.90;;;2.60;;
7503;SDS011;3793;48.136;11.536;2023-03-17T10:10:29;9.88;;;2.90;;
7503;SDS011;3793;48.136;11.536;2023-03-17T10:12:58;6.70;;;2.60;;
7503;SDS011;3793;48.136;11.536;2023-03-17T10:15:31;3.92;;;2.50;;
7503;SDS011;3793;48.136;11.536;2023-03-17T10:18:00;5.50;;;2.67;;
7503;SDS011;3793;48.136;11.536;2023-03-17T10:20:27;7.00;;;2.13;;
7503;SDS011;3793;48.136;11.536;2023-03-17T10:22:56;5.20;;;2.58;;
7503;SDS011;3793;48.136;11.536;2023-03-17T10:25:26;2.50;;;2.03;;
7503;SDS011;3793;48.136;11.536;2023-03-17T10:27:54;3.78;;;2.20;;
7503;SDS011;3793;48.136;11.536;2023-03-17T10:30:23;5.60;;;2.38;;
7503;SDS011;3793;48.136;11.536;2023-03-17T10:32:50;3.40;;;2.10;;
7503;SDS011;3793;48.136;11.536;2023-03-17T10:35:18;3.53;;;1.92;;
7503;SDS011;3793;48.136;11.536;2023-03-17T10:37:46;5.82;;;2.28;;
7503;SDS011;3793;48.136;11.536;2023-03-17T10:40:20;7.03;;;2.17;;
7503;SDS011;3793;48.136;11.536;2023-03-17T10:42:50;3.42;;;1.92;;
7503;SDS011;3793;48.136;11.536;2023-03-17T10:45:20;4.18;;;2.10;;
7503;SDS011;3793;48.136;11.536;2023-03-17T10:47:50;5.20;;;2.17;;
7503;SDS011;3793;48.136;11.536;2023-03-17T10:50:17;4.93;;;2.13;;
7503;SDS011;3793;48.136;11.536;2023-03-17T10:52:45;8.90;;;2.15;;
7503;SDS011;3793;48.136;11.536;2023-03-17T10:55:13;3.67;;;1.98;;
7503;SDS011;3793;48.136;11.536;2023-03-17T10:57:45;6.88;;;3.17;;
7503;SDS011;3793;48.136;11.536;2023-03-17T11:00:17;4.60;;;1.58;;
7503;SDS011;3793;48.136;11.536;2023-03-17T11:02:45;2.17;;;1.80;;
7503;SDS011;3793;48.136;11.536;2023-03-17T11:05:17;9.50;;;3.20;;
7503;SDS011;3793;48.136;11.536;2023-03-17T11:07:45;4.32;;;2.70;;
7503;SDS011;3793;48.136;11.536;2023-03-17T11:10:17;7.30;;;2.30;;
7503;SDS011;3793;48.136;11.536;2023-03-17T11:12:45;4.80;;;2.50;;
7503;SDS011;3793;48.136;11.536;2023-03-17T11:15:13;7.25;;;2.70;;
7503;SDS011;3793;48.136;11.536;2023-03-17T11:17:44;5.68;;;2.30;;
7503;SDS011;3793;48.136;11.536;2023-03-17T11:22:57;2.85;;;1.80;;
7503;SDS011;3793;48.136;11.536;2023-03-17T11:25:26;3.42;;;2.30;;
7503;SDS011;3793;48.136;11.536;2023-03-17T11:27:55;6.15;;;2.33;;
7503;SDS011;3793;48.136;11.536;2023-03-17T11:30:26;4.93;;;2.28;;
7503;SDS011;3793;48.136;11.536;2023-03-17T11:32:58;4.70;;;1.98;;
7503;SDS011;3793;48.136;11.536;2023-03-17T11:35:32;3.97;;;1.75;;
7503;SDS011;3793;48.136;11.536;2023-03-17T11:43:36;6.32;;;2.35;;
7503;SDS011;3793;48.136;11.536;2023-03-17T11:46:05;3.22;;;1.80;;
7503;SDS011;3793;48.136;11.536;2023-03-17T11:48:38;4.90;;;2.38;;
7503;SDS011;3793;48.136;11.536;2023-03-17T11:51:07;4.32;;;2.25;;
7503;SDS011;3793;48.136;11.536;2023-03-17T11:53:41;4.57;;;2.17;;
7503;SDS011;3793;48.136;11.536;2023-03-17T11:56:10;5.97;;;2.33;;
7503;SDS011;3793;48.136;11.536;2023-03-17T11:58:40;7.07;;;2.30;;
7503;SDS011;3793;48.136;11.536;2023-03-17T12:01:09;3.90;;;2.58;;
7503;SDS011;3793;48.136;11.536;2023-03-17T12:03:40;5.90;;;2.58;;
7503;SDS011;3793;48.136;11.536;2023-03-17T12:06:11;3.95;;;2.35;;
7503;SDS011;3793;48.136;11.536;2023-03-17T12:08:40;5.03;;;1.95;;
7503;SDS011;3793;48.136;11.536;2023-03-17T12:11:09;3.45;;;2.10;;
7503;SDS011;3793;48.136;11.536;2023-03-17T12:13:39;3.58;;;2.28;;
7503;SDS011;3793;48.136;11.536;2023-03-17T12:16:11;6.10;;;2.58;;
7503;SDS011;3793;48.136;11.536;2023-03-17T12:18:41;3.97;;;2.22;;
7503;SDS011;3793;48.136;11.536;2023-03-17T12:21:14;4.55;;;2.00;;
7503;SDS011;3793;48.136;11.536;2023-03-17T12:23:45;2.72;;;2.15;;
7503;SDS011;3793;48.136;11.536;2023-03-17T12:26:13;3.53;;;2.63;;
7503;SDS011;3793;48.136;11.536;2023-03-17T12:28:41;3.50;;;2.35;;
7503;SDS011;3793;48.136;11.536;2023-03-17T12:31:11;5.30;;;2.30;;
7503;SDS011;3793;48.136;11.536;2023-03-17T12:33:39;3.70;;;2.05;;
7503;SDS011;3793;48.136;11.536;2023-03-17T12:36:10;3.00;;;2.20;;
7503;SDS011;3793;48.136;11.536;2023-03-17T12:38:38;5.45;;;2.55;;
7503;SDS011;3793;48.136;11.536;2023-03-17T12:41:10;4.93;;;2.10;;
7503;SDS011;3793;48.136;11.536;2023-03-17T12:43:43;3.05;;;2.25;;
7503;SDS011;3793;48.136;11.536;2023-03-17T12:46:16;5.82;;;2.42;;
7503;SDS011;3793;48.136;11.536;2023-03-17T12:48:56;4.30;;;2.03;;
7503;SDS011;3793;48.136;11.536;2023-03-17T12:54:13;4.15;;;2.15;;
7503;SDS011;3793;48.136;11.536;2023-03-17T12:56:44;3.25;;;2.13;;
7503;SDS011;3793;48.136;11.536;2023-03-17T12:59:14;9.10;;;2.70;;
7503;SDS011;3793;48.136;11.536;2023-03-17T13:01:43;4.30;;;2.25;;
7503;SDS011;3793;48.136;11.536;2023-03-17T13:04:14;2.95;;;2.05;;
7503;SDS011;3793;48.136;11.536;2023-03-17T13:06:42;2.85;;;2.50;;
7503;SDS011;3793;48.136;11.536;2023-03-17T13:09:27;3.47;;;2.33;;
7503;SDS011;3793;48.136;11.536;2023-03-17T13:11:55;5.00;;;2.42;;
7503;SDS011;3793;48.136;11.536;2023-03-17T13:14:23;5.63;;;2.30;;
7503;SDS011;3793;48.136;11.536;2023-03-17T13:16:51;5.10;;;2.35;;
7503;SDS011;3793;48.136;11.536;2023-03-17T13:19:30;4.05;;;2.10;;
7503;SDS011;3793;48.136;11.536;2023-03-17T13:24:44;2.78;;;2.25;;
7503;SDS011;3793;48.136;11.536;2023-03-17T13:27:12;3.15;;;2.47;;
7503;SDS011;3793;48.136;11.536;2023-03-17T13:29:41;4.30;;;2.30;;
7503;SDS011;3793;48.136;11.536;2023-03-17T13:34:53;4.35;;;2.65;;
7503;SDS011;3793;48.136;11.536;2023-03-17T13:37:30;4.88;;;2.70;;
7503;SDS011;3793;48.136;11.536;2023-03-17T13:40:03;4.18;;;2.72;;
7503;SDS011;3793;48.136;11.536;2023-03-17T13:42:39;6.43;;;2.88;;
7503;SDS011;3793;48.136;11.536;2023-03-17T13:45:15;4.38;;;3.03;;
7503;SDS011;3793;48.136;11.536;2023-03-17T13:47:43;3.30;;;2.83;;
7503;SDS011;3793;48.136;11.536;2023-03-17T13:50:12;4.28;;;2.75;;
7503;SDS011;3793;48.136;11.536;2023-03-17T13:52:40;4.57;;;2.67;;
7503;SDS011;3793;48.136;11.536;2023-03-17T14:00:40;4.43;;;3.22;;
7503;SDS011;3793;48.136;11.536;2023-03-17T14:03:09;4.72;;;2.78;;
7503;SDS011;3793;48.136;11.536;2023-03-17T14:05:37;2.88;;;2.38;;
7503;SDS011;3793;48.136;11.536;2023-03-17T14:08:07;6.88;;;2.65;;
7503;SDS011;3793;48.136;11.536;2023-03-17T14:10:39;3.90;;;2.83;;
7503;SDS011;3793;48.136;11.536;2023-03-17T14:13:11;4.53;;;3.08;;
7503;SDS011;3793;48.136;11.536;2023-03-17T14:15:43;4.93;;;2.83;;
7503;SDS011;3793;48.136;11.536;2023-03-17T14:18:14;4.22;;;2.70;;
7503;SDS011;3793;48.136;11.536;2023-03-17T14:20:51;3.30;;;2.58;;
7503;SDS011;3793;48.136;11.536;2023-03-17T14:23:17;3.88;;;2.70;;
7503;SDS011;3793;48.136;11.536;2023-03-17T14:25:45;4.25;;;2.80;;
7503;SDS011;3793;48.136;11.536;2023-03-17T14:28:15;4.32;;;2.90;;
7503;SDS011;3793;48.136;11.536;2023-03-17T14:30:50;4.82;;;2.72;;
7503;SDS011;3793;48.136;11.536;2023-03-17T14:33:20;4.05;;;2.67;;
7503;SDS011;3793;48.136;11.536;2023-03-17T14:35:48;5.28;;;2.83;;
7503;SDS011;3793;48.136;11.536;2023-03-17T14:38:17;3.60;;;2.97;;
7503;SDS011;3793;48.136;11.536;2023-03-17T14:40:44;5.43;;;2.78;;
7503;SDS011;3793;48.136;11.536;2023-03-17T14:43:11;5.13;;;2.80;;
7503;SDS011;3793;48.136;11.536;2023-03-17T14:45:41;6.90;;;2.90;;
7503;SDS011;3793;48.136;11.536;2023-03-17T14:48:13;3.85;;;3.05;;
7503;SDS011;3793;48.136;11.536;2023-03-17T14:50:46;3.90;;;3.28;;
7503;SDS011;3793;48.136;11.536;2023-03-17T14:53:14;4.68;;;3.28;;
7503;SDS011;3793;48.136;11.536;2023-03-17T14:55:41;8.82;;;3.25;;
7503;SDS011;3793;48.136;11.536;2023-03-17T14:58:08;7.90;;;2.95;;
7503;SDS011;3793;48.136;11.536;2023-03-17T15:00:36;3.70;;;2.92;;
7503;SDS011;3793;48.136;11.536;2023-03-17T15:03:14;4.75;;;2.90;;
7503;SDS011;3793;48.136;11.536;2023-03-17T15:05:43;7.32;;;3.80;;
7503;SDS011;3793;48.136;11.536;2023-03-17T15:08:26;13.15;;;3.60;;
7503;SDS011;3793;48.136;11.536;2023-03-17T15:10:55;10.48;;;3.38;;
7503;SDS011;3793;48.136;11.536;2023-03-17T15:13:23;4.40;;;3.08;;
7503;SDS011;3793;48.136;11.536;2023-03-17T15:15:50;3.72;;;2.72;;
7503;SDS011;3793;48.136;11.536;2023-03-17T15:18:16;4.68;;;3.10;;
7503;SDS011;3793;48.136;11.536;2023-03-17T15:20:45;6.22;;;3.05;;
7503;SDS011;3793;48.136;11.536;2023-03-17T15:23:14;5.93;;;3.40;;
7503;SDS011;3793;48.136;11.536;2023-03-17T15:25:42;3.75;;;2.95;;
7503;SDS011;3793;48.136;11.536;2023-03-17T15:28:10;3.28;;;2.55;;
7503;SDS011;3793;48.136;11.536;2023-03-17T15:30:38;5.43;;;3.20;;
7503;SDS011;3793;48.136;11.536;2023-03-17T15:33:11;5.45;;;3.15;;
7503;SDS011;3793;48.136;11.536;2023-03-17T15:35:39;5.00;;;2.90;;
7503;SDS011;3793;48.136;11.536;2023-03-17T15:38:09;3.45;;;2.83;;
7503;SDS011;3793;48.136;11.536;2023-03-17T15:40:36;4.78;;;2.80;;